createdAt,value
2022-12-09T00:01:12.726Z,98053.50
2022-12-09T00:03:40.275Z,98049.00
2022-12-09T00:06:25.140Z,98051.63
2022-12-09T00:08:54.956Z,98048.28
2022-12-09T00:11:21.929Z,98052.75
2022-12-09T00:13:50.429Z,98053.50
2022-12-09T00:16:17.758Z,98051.81
2022-12-09T00:18:44.918Z,98051.44
2022-12-09T00:21:25.941Z,98054.88
2022-12-09T00:23:54.147Z,98045.28
2022-12-09T00:26:25.492Z,98042.66
2022-12-09T00:28:53.236Z,98050.88
2022-12-09T00:31:24.687Z,98039.13
2022-12-09T00:33:53.244Z,98043.41
2022-12-09T00:36:21.876Z,98042.59
2022-12-09T00:38:49.004Z,98042.69
2022-12-09T00:41:16.046Z,98042.50
2022-12-09T00:43:43.773Z,98040.59
2022-12-09T00:46:12.505Z,98044.72
2022-12-09T00:48:39.723Z,98049.84
2022-12-09T00:51:08.207Z,98041.38
2022-12-09T00:53:35.235Z,98046.75
2022-12-09T00:56:02.267Z,98040.59
2022-12-09T00:58:29.130Z,98041.66
2022-12-09T01:00:56.289Z,98039.97
2022-12-09T01:03:26.211Z,98038.00
2022-12-09T01:05:53.111Z,98042.22
2022-12-09T01:08:19.886Z,98047.34
2022-12-09T01:10:47.353Z,98044.53
2022-12-09T01:13:18.192Z,98056.47
2022-12-09T01:15:45.371Z,98043.97
2022-12-09T01:18:14.144Z,98051.97
2022-12-09T01:20:40.997Z,98052.94
2022-12-09T01:23:07.699Z,98060.16
2022-12-09T01:25:34.363Z,98057.31
2022-12-09T01:28:01.049Z,98059.81
2022-12-09T01:30:27.791Z,98063.38
2022-12-09T01:32:54.614Z,98065.97
2022-12-09T01:35:21.788Z,98061.50
2022-12-09T01:37:48.506Z,98054.41
2022-12-09T01:40:17.751Z,98053.00
2022-12-09T01:42:45.035Z,98063.25
2022-12-09T01:45:21.569Z,98062.31
2022-12-09T01:47:55.076Z,98057.09
2022-12-09T01:50:22.515Z,98056.28
2022-12-09T01:52:50.547Z,98056.28
2022-12-09T01:55:18.131Z,98053.50
2022-12-09T01:57:45.691Z,98052.72
2022-12-09T02:00:13.664Z,98058.03
2022-12-09T02:02:41.870Z,98047.50
2022-12-09T02:05:09.456Z,98049.38
2022-12-09T02:07:36.393Z,98046.66
2022-12-09T02:10:06.564Z,98046.59
2022-12-09T02:12:36.904Z,98036.06
2022-12-09T02:15:09.007Z,98043.78
2022-12-09T02:17:48.815Z,98041.91
2022-12-09T02:20:23.725Z,98039.41
2022-12-09T02:23:11.063Z,98033.34
2022-12-09T02:25:57.432Z,98031.78
2022-12-09T02:28:52.188Z,98037.34
2022-12-09T02:31:21.853Z,98027.84
2022-12-09T02:33:54.351Z,98034.66
2022-12-09T02:36:27.846Z,98031.84
2022-12-09T02:38:54.656Z,98029.31
2022-12-09T02:41:29.366Z,98021.41
2022-12-09T02:44:04.394Z,98019.72
2022-12-09T02:46:32.953Z,98019.38
2022-12-09T02:49:00.545Z,98014.72
2022-12-09T02:51:30.983Z,98020.78
2022-12-09T02:54:04.120Z,98020.09
2022-12-09T02:56:32.411Z,98021.78
2022-12-09T02:58:59.171Z,98014.88
2022-12-09T03:01:42.907Z,98011.56
2022-12-09T03:04:17.790Z,98010.59
2022-12-09T03:06:51.588Z,98006.34
2022-12-09T03:09:27.487Z,98004.66
2022-12-09T03:11:56.297Z,98008.19
2022-12-09T03:14:29.698Z,98015.09
2022-12-09T03:17:26.038Z,98009.88
2022-12-09T03:20:00.886Z,98005.75
2022-12-09T03:22:29.604Z,98003.13
2022-12-09T03:25:08.750Z,98005.38
2022-12-09T03:27:53.664Z,98000.34
2022-12-09T03:30:20.565Z,98000.41
2022-12-09T03:32:48.037Z,97997.56
2022-12-09T03:35:21.369Z,97994.75
2022-12-09T03:37:51.287Z,97990.28
2022-12-09T03:40:24.338Z,97979.78
2022-12-09T03:43:05.523Z,97979.09
2022-12-09T03:45:33.455Z,97975.28
2022-12-09T03:48:02.123Z,97966.59
2022-12-09T03:50:36.035Z,97978.38
2022-12-09T03:53:21.534Z,97977.06
2022-12-09T03:55:56.252Z,97985.06
2022-12-09T03:58:23.587Z,97974.63
2022-12-09T04:00:51.132Z,97976.31
2022-12-09T04:03:18.824Z,97967.72
2022-12-09T04:05:45.869Z,97974.63
2022-12-09T04:08:12.938Z,97965.88
2022-12-09T04:10:39.769Z,97962.34
2022-12-09T04:13:06.785Z,97956.38
2022-12-09T04:15:33.501Z,97967.00
2022-12-09T04:18:00.609Z,97961.94
2022-12-09T04:20:30.423Z,97957.84
2022-12-09T04:22:57.244Z,97963.06
2022-12-09T04:25:23.907Z,97958.78
2022-12-09T04:27:50.589Z,97968.47
2022-12-09T04:30:17.231Z,97970.34
2022-12-09T04:32:44.288Z,97961.75
2022-12-09T04:35:11.312Z,97961.00
2022-12-09T04:37:38.508Z,97961.22
2022-12-09T04:40:07.842Z,97970.88
2022-12-09T04:42:34.800Z,97968.19
2022-12-09T04:45:02.232Z,97968.91
2022-12-09T04:47:29.397Z,97962.88
2022-12-09T04:49:56.384Z,97969.03
2022-12-09T04:52:23.454Z,97969.66
2022-12-09T04:54:51.044Z,97962.97
2022-12-09T04:57:19.011Z,97970.88
2022-12-09T04:59:45.841Z,97977.00
2022-12-09T05:02:15.808Z,97971.06
2022-12-09T05:04:43.192Z,97969.38
2022-12-09T05:07:11.271Z,97968.72
2022-12-09T05:09:38.584Z,97966.19
2022-12-09T05:12:05.922Z,97968.00
2022-12-09T05:14:32.863Z,97968.78
2022-12-09T05:16:59.528Z,97972.84
2022-12-09T05:19:26.580Z,97968.28
2022-12-09T05:21:56.332Z,97967.25
2022-12-09T05:24:23.156Z,97961.09
2022-12-09T05:26:50.736Z,97965.38
2022-12-09T05:29:22.801Z,97963.44
2022-12-09T05:31:51.778Z,97962.41
2022-12-09T05:34:19.404Z,97962.69
2022-12-09T05:36:46.788Z,97957.31
2022-12-09T05:39:13.949Z,97958.03
2022-12-09T05:41:40.651Z,97956.19
2022-12-09T05:44:07.594Z,97955.41
2022-12-09T05:46:34.463Z,97956.19
2022-12-09T05:49:01.373Z,97948.44
2022-12-09T05:51:30.598Z,97945.91
2022-12-09T05:54:01.162Z,97950.28
2022-12-09T05:56:28.393Z,97943.31
2022-12-09T05:58:56.511Z,97945.06
2022-12-09T06:01:25.002Z,97947.59
2022-12-09T06:03:53.105Z,97949.84
2022-12-09T06:06:22.819Z,97944.63
2022-12-09T06:08:50.156Z,97946.28
2022-12-09T06:11:21.938Z,97944.44
2022-12-09T06:13:50.677Z,97939.06
2022-12-09T06:16:19.810Z,97937.25
2022-12-09T06:18:47.598Z,97941.47
2022-12-09T06:21:16.979Z,97944.81
2022-12-09T06:23:43.739Z,97943.91
2022-12-09T06:26:17.919Z,97948.06
2022-12-09T06:28:45.086Z,97941.94
2022-12-09T06:31:12.304Z,97948.81
2022-12-09T06:33:54.966Z,97953.97
2022-12-09T06:36:23.522Z,97938.31
2022-12-09T06:38:50.245Z,97937.34
2022-12-09T06:41:17.173Z,97941.47
2022-12-09T06:43:44.693Z,97945.00
2022-12-09T06:46:17.157Z,97945.56
2022-12-09T06:48:44.785Z,97943.25
2022-12-09T06:51:12.116Z,97943.31
2022-12-09T06:53:39.180Z,97941.63
2022-12-09T06:56:11.789Z,97944.63
2022-12-09T06:58:41.522Z,97947.06
2022-12-09T07:01:13.823Z,97954.13
2022-12-09T07:03:45.817Z,97948.91
2022-12-09T07:06:37.309Z,97943.31
2022-12-09T07:09:08.920Z,97949.69
2022-12-09T07:11:36.839Z,97950.97
2022-12-09T07:14:04.439Z,97949.38
2022-12-09T07:16:31.973Z,97949.28
2022-12-09T07:18:59.279Z,97947.97
2022-12-09T07:21:27.032Z,97954.13
2022-12-09T07:23:55.355Z,97949.47
2022-12-09T07:26:22.296Z,97953.19
2022-12-09T07:28:50.495Z,97957.97
2022-12-09T07:31:26.591Z,97957.84
2022-12-09T07:33:55.410Z,97958.69
2022-12-09T07:36:25.116Z,97959.72
2022-12-09T07:39:03.381Z,97966.72
2022-12-09T07:41:30.461Z,97962.25
2022-12-09T07:43:57.438Z,97955.91
2022-12-09T07:46:27.581Z,97956.53
2022-12-09T07:48:56.255Z,97953.56
2022-12-09T07:51:25.128Z,97958.44
2022-12-09T07:53:52.559Z,97964.75
2022-12-09T07:56:20.350Z,97962.97
2022-12-09T07:58:48.729Z,97963.25
2022-12-09T08:01:18.191Z,97959.66
2022-12-09T08:03:45.822Z,97965.88
2022-12-09T08:06:16.159Z,97970.72
2022-12-09T08:08:44.303Z,97964.66
2022-12-09T08:11:17.154Z,97970.72
2022-12-09T08:13:44.411Z,97968.88
2022-12-09T08:16:13.510Z,97973.97
2022-12-09T08:18:42.155Z,97967.81
2022-12-09T08:21:13.217Z,97964.28
2022-12-09T08:23:40.426Z,97970.97
2022-12-09T08:26:10.400Z,97967.44
2022-12-09T08:28:37.305Z,97964.75
2022-12-09T08:31:16.798Z,97968.97
2022-12-09T08:33:44.838Z,97962.59
2022-12-09T08:36:33.816Z,97965.84
2022-12-09T08:39:02.134Z,97962.53
2022-12-09T08:41:38.489Z,97958.03
2022-12-09T08:44:11.561Z,97958.53
2022-12-09T08:46:41.080Z,97954.69
2022-12-09T08:49:09.129Z,97956.25
2022-12-09T08:51:36.630Z,97956.09
2022-12-09T08:54:04.290Z,97949.81
2022-12-09T08:56:31.387Z,97948.72
2022-12-09T08:59:01.514Z,97959.69
2022-12-09T09:01:33.010Z,97956.44
2022-12-09T09:04:09.974Z,97954.66
2022-12-09T09:06:39.539Z,97951.88
2022-12-09T09:09:09.009Z,97953.63
2022-12-09T09:11:36.532Z,97950.84
2022-12-09T09:14:09.220Z,97949.81
2022-12-09T09:16:39.818Z,97955.47
2022-12-09T09:19:07.941Z,97948.88
2022-12-09T09:21:35.862Z,97947.19
2022-12-09T09:24:07.911Z,97952.22
2022-12-09T09:26:35.013Z,97941.41
2022-12-09T09:29:02.083Z,97946.25
2022-12-09T09:31:29.013Z,97942.88
2022-12-09T09:33:55.914Z,97945.31
2022-12-09T09:36:25.068Z,97936.13
2022-12-09T09:38:55.082Z,97928.91
2022-12-09T09:41:47.220Z,97934.47
2022-12-09T09:44:23.303Z,97937.53
2022-12-09T09:46:52.528Z,97926.88
2022-12-09T09:49:36.880Z,97929.97
2022-12-09T09:52:18.472Z,97923.06
2022-12-09T09:54:45.831Z,97926.44
2022-12-09T09:57:40.428Z,97916.06
2022-12-09T10:00:46.864Z,97917.66
2022-12-09T10:03:41.049Z,97915.81
2022-12-09T10:06:36.700Z,97916.44
2022-12-09T10:09:11.348Z,97909.97
2022-12-09T10:11:56.276Z,97918.34
2022-12-09T10:14:36.386Z,97911.47
2022-12-09T10:17:15.559Z,97908.94
2022-12-09T10:19:56.868Z,97904.13
2022-12-09T10:22:29.123Z,97903.28
2022-12-09T10:24:59.925Z,97897.25
2022-12-09T10:27:45.297Z,97897.59
2022-12-09T10:30:15.694Z,97899.69
2022-12-09T10:32:43.197Z,97898.03
2022-12-09T10:35:30.848Z,97895.38
2022-12-09T10:38:10.397Z,97891.53
2022-12-09T10:40:37.067Z,97886.91
2022-12-09T10:43:41.272Z,97886.91
2022-12-09T10:46:22.054Z,97877.41
2022-12-09T10:48:50.339Z,97883.06
2022-12-09T10:51:19.609Z,97876.41
2022-12-09T10:53:56.995Z,97875.31
2022-12-09T10:56:30.119Z,97874.53
2022-12-09T10:59:22.460Z,97869.31
2022-12-09T11:01:52.703Z,97873.16
2022-12-09T11:04:29.491Z,97863.47
2022-12-09T11:07:05.402Z,97875.78
2022-12-09T11:09:38.551Z,97867.22
2022-12-09T11:12:13.233Z,97866.16
2022-12-09T11:14:49.153Z,97859.06
2022-12-09T11:17:15.941Z,97851.13
2022-12-09T11:19:47.056Z,97857.81
2022-12-09T11:22:32.711Z,97858.22
2022-12-09T11:25:23.799Z,97854.75
2022-12-09T11:28:00.586Z,97863.03
2022-12-09T11:30:32.670Z,97857.72
2022-12-09T11:33:06.091Z,97862.00
2022-12-09T11:35:45.063Z,97857.91
2022-12-09T11:38:30.412Z,97858.88
2022-12-09T11:41:11.145Z,97859.78
2022-12-09T11:43:56.499Z,97862.72
2022-12-09T11:46:27.928Z,97855.84
2022-12-09T11:49:15.838Z,97863.25
2022-12-09T11:51:46.896Z,97858.56
2022-12-09T11:54:18.853Z,97859.19
2022-12-09T11:56:50.187Z,97858.47
2022-12-09T11:59:26.196Z,97867.41
2022-12-09T12:02:11.499Z,97857.81
2022-12-09T12:05:02.106Z,97856.88
2022-12-09T12:07:47.149Z,97862.81
2022-12-09T12:10:23.272Z,97858.44
2022-12-09T12:13:14.888Z,97859.16
2022-12-09T12:15:57.882Z,97866.25
2022-12-09T12:18:29.188Z,97853.91
2022-12-09T12:21:26.260Z,97859.06
2022-12-09T12:24:17.356Z,97853.63
2022-12-09T12:27:04.167Z,97847.44
2022-12-09T12:29:59.462Z,97848.09
2022-12-09T12:33:11.865Z,97854.34
2022-12-09T12:36:11.218Z,97845.47
2022-12-09T12:39:03.390Z,97845.88
2022-12-09T12:41:37.027Z,97839.91
2022-12-09T12:44:56.611Z,97840.66
2022-12-09T12:47:42.268Z,97838.97
2022-12-09T12:50:30.255Z,97835.59
2022-12-09T12:53:05.937Z,97834.16
2022-12-09T12:55:50.320Z,97828.19
2022-12-09T12:58:19.661Z,97827.25
2022-12-09T13:01:15.757Z,97818.53
2022-12-09T13:04:06.215Z,97831.00
2022-12-09T13:06:51.300Z,97818.66
2022-12-09T13:09:20.923Z,97828.41
2022-12-09T13:12:19.713Z,97823.88
2022-12-09T13:14:54.591Z,97826.84
2022-12-09T13:17:27.112Z,97831.66
2022-12-09T13:19:58.584Z,97833.53
2022-12-09T13:22:33.339Z,97830.31
2022-12-09T13:25:11.909Z,97829.06
2022-12-09T13:27:52.559Z,97827.28
2022-12-09T13:30:27.034Z,97821.19
2022-12-09T13:33:30.897Z,97822.13
2022-12-09T13:36:35.927Z,97808.16
2022-12-09T13:39:03.574Z,97810.09
2022-12-09T13:41:30.111Z,97814.16
2022-12-09T13:44:05.797Z,97806.34
2022-12-09T13:46:33.729Z,97806.53
2022-12-09T13:49:11.096Z,97814.53
2022-12-09T13:51:46.685Z,97804.06
2022-12-09T13:54:17.586Z,97806.13
2022-12-09T13:56:48.007Z,97807.63
2022-12-09T13:59:40.709Z,97809.16
2022-12-09T14:02:31.521Z,97810.22
2022-12-09T14:05:18.828Z,97803.13
2022-12-09T14:07:51.186Z,97799.53
2022-12-09T14:10:37.086Z,97808.13
2022-12-09T14:13:26.669Z,97799.25
2022-12-09T14:16:15.169Z,97799.25
2022-12-09T14:18:42.509Z,97801.34
2022-12-09T14:21:18.338Z,97806.38
2022-12-09T14:24:11.266Z,97803.44
2022-12-09T14:26:43.629Z,97810.56
2022-12-09T14:29:10.463Z,97807.72
2022-12-09T14:31:45.381Z,97816.81
2022-12-09T14:34:34.860Z,97814.72
2022-12-09T14:37:28.378Z,97813.38
2022-12-09T14:40:03.146Z,97818.91
2022-12-09T14:42:41.769Z,97822.78
2022-12-09T14:45:28.242Z,97820.16
2022-12-09T14:47:56.189Z,97817.31
2022-12-09T14:50:24.846Z,97817.72
2022-12-09T14:53:01.713Z,97821.50
2022-12-09T14:55:30.367Z,97817.19
2022-12-09T14:58:00.035Z,97817.19
2022-12-09T15:00:41.638Z,97824.50
2022-12-09T15:03:33.130Z,97820.44
2022-12-09T15:06:05.001Z,97818.94
2022-12-09T15:08:37.380Z,97821.34
2022-12-09T15:11:34.135Z,97814.75
2022-12-09T15:14:23.501Z,97826.31
2022-12-09T15:16:50.972Z,97824.75
2022-12-09T15:19:51.048Z,97815.16
2022-12-09T15:22:24.485Z,97825.03
2022-12-09T15:24:52.610Z,97822.41
2022-12-09T15:27:22.541Z,97825.03
2022-12-09T15:29:49.979Z,97818.03
2022-12-09T15:32:26.199Z,97824.50
2022-12-09T15:34:54.395Z,97824.41
2022-12-09T15:37:28.135Z,97834.00
2022-12-09T15:40:10.413Z,97840.06
2022-12-09T15:42:41.423Z,97840.25
2022-12-09T15:45:15.469Z,97835.34
2022-12-09T15:47:56.134Z,97826.75
2022-12-09T15:50:46.449Z,97843.16
2022-12-09T15:53:16.837Z,97845.88
2022-12-09T15:55:51.624Z,97843.06
2022-12-09T15:58:28.137Z,97843.06
2022-12-09T16:00:55.325Z,97843.16
2022-12-09T16:03:26.114Z,97843.56
2022-12-09T16:05:55.716Z,97850.63
2022-12-09T16:08:23.149Z,97849.00
2022-12-09T16:10:51.819Z,97852.91
2022-12-09T16:13:21.278Z,97847.78
2022-12-09T16:15:52.660Z,97847.25
2022-12-09T16:18:25.921Z,97843.03
2022-12-09T16:21:17.842Z,97839.50
2022-12-09T16:23:47.347Z,97836.16
2022-12-09T16:26:23.722Z,97837.75
2022-12-09T16:28:59.708Z,97827.94
2022-12-09T16:31:26.846Z,97836.72
2022-12-09T16:33:54.056Z,97839.34
2022-12-09T16:36:28.895Z,97844.72
2022-12-09T16:39:07.567Z,97841.81
2022-12-09T16:41:52.299Z,97844.81
2022-12-09T16:44:31.637Z,97846.59
2022-12-09T16:47:12.089Z,97850.16
2022-12-09T16:49:40.603Z,97842.03
2022-12-09T16:52:11.444Z,97843.03
2022-12-09T16:54:38.501Z,97838.59
2022-12-09T16:57:05.148Z,97842.03
2022-12-09T16:59:37.598Z,97839.50
2022-12-09T17:02:09.390Z,97835.97
2022-12-09T17:04:36.091Z,97846.59
2022-12-09T17:07:02.747Z,97837.81
2022-12-09T17:09:29.531Z,97846.41
2022-12-09T17:11:56.141Z,97837.28
2022-12-09T17:14:22.739Z,97838.03
2022-12-09T17:16:49.404Z,97838.50
2022-12-09T17:19:16.206Z,97848.09
2022-12-09T17:21:42.833Z,97846.59
2022-12-09T17:24:11.669Z,97844.28
2022-12-09T17:26:38.349Z,97843.44
2022-12-09T17:29:07.220Z,97847.63
2022-12-09T17:31:33.843Z,97853.69
2022-12-09T17:34:00.515Z,97854.31
2022-12-09T17:36:27.149Z,97861.22
2022-12-09T17:38:53.917Z,97857.69
2022-12-09T17:41:23.562Z,97862.06
2022-12-09T17:43:50.355Z,97862.69
2022-12-09T17:46:17.107Z,97859.91
2022-12-09T17:48:43.808Z,97858.13
2022-12-09T17:51:13.593Z,97861.47
2022-12-09T17:53:41.831Z,97872.75
2022-12-09T17:56:13.706Z,97865.97
2022-12-09T17:58:40.788Z,97873.41
2022-12-09T18:01:20.132Z,97873.13
2022-12-09T18:03:55.973Z,97875.09
2022-12-09T18:06:26.188Z,97871.44
2022-12-09T18:08:53.598Z,97882.28
2022-12-09T18:11:22.377Z,97881.25
2022-12-09T18:13:50.110Z,97888.53
2022-12-09T18:16:17.150Z,97888.25
2022-12-09T18:18:44.088Z,97889.38
2022-12-09T18:21:15.600Z,97886.31
2022-12-09T18:23:43.062Z,97881.09
2022-12-09T18:26:13.079Z,97881.25
2022-12-09T18:28:40.441Z,97887.09
2022-12-09T18:31:08.677Z,97888.06
2022-12-09T18:33:36.616Z,97892.53
2022-12-09T18:36:21.506Z,97893.38
2022-12-09T18:38:48.659Z,97885.47
2022-12-09T18:41:20.450Z,97889.84
2022-12-09T18:43:48.855Z,97895.50
2022-12-09T18:46:25.940Z,97897.47
2022-12-09T18:49:23.907Z,97895.91
2022-12-09T18:51:52.766Z,97902.13
2022-12-09T18:54:26.533Z,97897.38
2022-12-09T18:56:54.520Z,97896.53
2022-12-09T18:59:22.863Z,97902.34
2022-12-09T19:01:50.043Z,97895.16
2022-12-09T19:04:19.477Z,97890.88
2022-12-09T19:06:47.476Z,97900.94
2022-12-09T19:09:20.023Z,97900.84
2022-12-09T19:11:48.328Z,97897.28
2022-12-09T19:14:16.705Z,97892.09
2022-12-09T19:16:43.833Z,97898.97
2022-12-09T19:19:16.015Z,97897.28
2022-12-09T19:21:43.110Z,97901.59
2022-12-09T19:24:18.417Z,97892.84
2022-12-09T19:26:45.325Z,97900.56
2022-12-09T19:29:13.285Z,97901.41
2022-12-09T19:31:45.533Z,97901.41
2022-12-09T19:34:13.642Z,97904.03
2022-12-09T19:36:40.697Z,97909.97
2022-12-09T19:39:08.680Z,97907.25
2022-12-09T19:41:37.167Z,97912.47
2022-12-09T19:44:04.987Z,97915.28
2022-12-09T19:46:32.218Z,97909.97
2022-12-09T19:48:59.425Z,97907.47
2022-12-09T19:51:27.283Z,97913.50
2022-12-09T19:53:55.848Z,97915.19
2022-12-09T19:56:22.995Z,97910.72
2022-12-09T19:58:50.097Z,97916.09
2022-12-09T20:01:22.790Z,97912.78
2022-12-09T20:03:52.330Z,97909.25
2022-12-09T20:06:19.495Z,97919.09
2022-12-09T20:08:46.810Z,97912.88
2022-12-09T20:11:16.552Z,97906.63
2022-12-09T20:13:43.814Z,97910.81
2022-12-09T20:16:14.245Z,97908.41
2022-12-09T20:18:41.213Z,97917.06
2022-12-09T20:21:10.266Z,97916.09
2022-12-09T20:23:38.903Z,97920.41
2022-12-09T20:26:16.496Z,97910.34
2022-12-09T20:28:44.714Z,97908.84
2022-12-09T20:31:15.279Z,97907.94
2022-12-09T20:33:42.601Z,97915.28
2022-12-09T20:36:15.882Z,97916.13
2022-12-09T20:38:44.128Z,97909.03
2022-12-09T20:41:13.222Z,97912.41
2022-12-09T20:43:42.000Z,97920.97
2022-12-09T20:46:17.029Z,97918.91
2022-12-09T20:48:44.437Z,97919.84
2022-12-09T20:51:17.372Z,97922.38
2022-12-09T20:53:45.290Z,97926.66
2022-12-09T20:56:12.231Z,97923.50
2022-12-09T20:58:39.807Z,97928.03
2022-12-09T21:01:16.653Z,97931.56
2022-12-09T21:03:43.566Z,97935.88
2022-12-09T21:06:11.698Z,97932.50
2022-12-09T21:08:38.330Z,97929.91
2022-12-09T21:11:10.502Z,97924.69
2022-12-09T21:13:40.031Z,97933.34
2022-12-09T21:16:09.886Z,97924.59
2022-12-09T21:18:36.969Z,97931.31
2022-12-09T21:21:04.660Z,97924.31
2022-12-09T21:23:34.082Z,97926.28
2022-12-09T21:26:09.375Z,97930.56
2022-12-09T21:28:37.347Z,97927.88
2022-12-09T21:31:13.097Z,97927.88
2022-12-09T21:33:40.671Z,97923.50
2022-12-09T21:36:09.916Z,97920.59
2022-12-09T21:38:37.528Z,97934.75
2022-12-09T21:41:06.215Z,97929.72
2022-12-09T21:43:34.503Z,97923.88
2022-12-09T21:46:02.858Z,97931.03
2022-12-09T21:48:29.621Z,97931.03
2022-12-09T21:50:57.675Z,97928.63
2022-12-09T21:53:24.625Z,97925.34
2022-12-09T21:55:53.001Z,97930.63
2022-12-09T21:58:20.063Z,97932.31
2022-12-09T22:00:46.800Z,97940.69
2022-12-09T22:03:13.402Z,97941.47
2022-12-09T22:05:39.960Z,97936.16
2022-12-09T22:08:06.673Z,97935.97
2022-12-09T22:10:36.825Z,97939.69
2022-12-09T22:13:03.810Z,97937.38
2022-12-09T22:15:31.029Z,97941.06
2022-12-09T22:17:57.670Z,97937.53
2022-12-09T22:21:00.583Z,97939.97
2022-12-09T22:23:11.109Z,97940.69
2022-12-09T22:25:39.365Z,97937.38
2022-12-09T22:28:06.207Z,97942.47
2022-12-09T22:30:36.477Z,97937.16
2022-12-09T22:33:03.409Z,97941.47
2022-12-09T22:35:30.135Z,97943.13
2022-12-09T22:37:59.272Z,97941.38
2022-12-09T22:40:26.102Z,97956.34
2022-12-09T22:42:52.817Z,97952.34
2022-12-09T22:45:19.407Z,97951.41
2022-12-09T22:47:46.015Z,97955.41
2022-12-09T22:50:13.085Z,97950.50
2022-12-09T22:52:39.792Z,97957.56
2022-12-09T22:55:06.840Z,97955.06
2022-12-09T22:57:33.512Z,97955.78
2022-12-09T23:00:00.136Z,97953.19
2022-12-09T23:02:26.858Z,97962.53
2022-12-09T23:04:53.488Z,97968.81
2022-12-09T23:07:20.169Z,97963.44
2022-12-09T23:09:46.742Z,97959.72
2022-12-09T23:12:14.079Z,97958.03
2022-12-09T23:14:40.662Z,97959.91
2022-12-09T23:17:07.321Z,97961.94
2022-12-09T23:19:34.057Z,97960.00
2022-12-09T23:22:00.679Z,97951.50
2022-12-09T23:24:27.357Z,97953.19
2022-12-09T23:26:55.526Z,97953.94
2022-12-09T23:29:22.692Z,97949.84
2022-12-09T23:31:49.357Z,97954.09
2022-12-09T23:34:16.628Z,97945.34
2022-12-09T23:36:44.844Z,97957.56
2022-12-09T23:39:16.872Z,97962.59
2022-12-09T23:41:44.841Z,97962.69
2022-12-09T23:44:15.075Z,97959.16
2022-12-09T23:46:42.212Z,97955.72
2022-12-09T23:49:09.211Z,97950.50
2022-12-09T23:51:39.288Z,97954.88
2022-12-09T23:54:08.526Z,97958.69
2022-12-09T23:56:38.996Z,97964.75
2022-12-09T23:59:08.715Z,97966.22
